createdAt,value
2018-05-02T08:33:51.113Z,13.20
2018-05-02T08:36:19.040Z,13.20
2018-05-02T08:38:47.022Z,13.30
2018-05-02T08:41:14.925Z,13.30
2018-05-02T08:43:42.834Z,13.40
2018-05-02T08:46:10.774Z,13.40
2018-05-02T08:48:38.714Z,13.40
2018-05-02T08:51:06.641Z,13.50
2018-05-02T08:53:34.565Z,13.60
2018-05-02T08:56:02.508Z,13.70
2018-05-02T08:58:30.446Z,13.70
2018-05-02T09:00:58.368Z,13.70
2018-05-02T09:05:55.205Z,13.80
2018-05-02T09:08:23.139Z,13.90
2018-05-02T09:10:51.075Z,13.80
2018-05-02T09:15:47.892Z,13.80
2018-05-02T09:18:15.813Z,13.80
2018-05-02T09:20:43.724Z,13.80
2018-05-02T09:23:11.845Z,14.00
2018-05-02T09:25:40.022Z,14.20
2018-05-02T09:28:07.974Z,14.30
2018-05-02T09:30:35.872Z,14.50
2018-05-02T09:35:32.677Z,14.40
2018-05-02T09:38:00.636Z,14.60
2018-05-02T09:40:28.598Z,14.80
2018-05-02T09:42:56.515Z,14.40
2018-05-02T09:45:24.446Z,14.80
2018-05-02T09:50:21.266Z,14.70
2018-05-02T09:52:49.294Z,14.40
2018-05-02T09:55:17.221Z,15.00
2018-05-02T09:57:45.178Z,14.70
2018-05-02T10:00:13.224Z,15.20
2018-05-02T10:02:41.179Z,14.80
2018-05-02T10:05:09.149Z,15.40
2018-05-02T10:07:37.114Z,15.10
2018-05-02T10:10:05.029Z,15.60
2018-05-02T10:12:33.008Z,15.20
2018-05-02T10:15:00.910Z,15.00
2018-05-02T10:17:28.889Z,15.40
2018-05-02T10:19:56.842Z,15.20
2018-05-02T10:22:25.301Z,15.10
2018-05-02T10:24:53.236Z,15.80
2018-05-02T10:27:21.211Z,15.60
2018-05-02T10:29:49.161Z,15.70
2018-05-02T10:32:17.097Z,15.70
2018-05-02T10:34:45.019Z,15.60
2018-05-02T10:37:12.961Z,15.50
2018-05-02T10:39:40.941Z,15.60
2018-05-02T10:42:08.880Z,15.70
2018-05-02T10:44:36.806Z,15.80
2018-05-02T10:47:04.821Z,15.70
2018-05-02T10:52:01.625Z,15.60
2018-05-02T10:54:29.757Z,15.80
2018-05-02T10:56:57.670Z,16.10
2018-05-02T10:59:25.595Z,16.30
2018-05-02T11:01:53.524Z,16.60
2018-05-02T11:04:21.436Z,16.90
2018-05-02T11:06:49.376Z,17.20
2018-05-02T11:09:17.296Z,17.30
2018-05-02T11:11:45.201Z,17.20
2018-05-02T11:14:13.135Z,17.10
2018-05-02T11:16:41.052Z,17.30
2018-05-02T11:19:08.996Z,17.60
2018-05-02T11:21:36.918Z,17.90
2018-05-02T11:24:04.826Z,18.10
2018-05-02T11:26:32.758Z,18.20
2018-05-02T11:29:00.683Z,18.40
2018-05-02T11:31:28.631Z,18.40
2018-05-02T11:33:56.550Z,18.20
2018-05-02T11:36:24.494Z,17.90
2018-05-02T11:38:52.479Z,18.10
2018-05-02T11:41:20.404Z,18.50
2018-05-02T11:43:49.061Z,18.90
2018-05-02T11:46:17.232Z,19.20
2018-05-02T11:48:45.107Z,20.00
2018-05-02T11:51:13.035Z,20.70
2018-05-02T11:56:09.838Z,23.00
2018-05-02T11:58:38.681Z,23.60
2018-05-02T12:01:06.646Z,24.70
2018-05-02T12:03:34.614Z,25.30
2018-05-02T12:06:02.518Z,26.00
2018-05-02T12:08:30.465Z,27.20
2018-05-02T12:10:58.586Z,27.70
2018-05-02T12:13:26.497Z,27.00
2018-05-02T12:15:56.684Z,26.80
2018-05-02T12:18:24.721Z,26.40
2018-05-02T12:20:52.655Z,26.60
2018-05-02T12:23:20.579Z,26.50
2018-05-02T12:25:48.501Z,26.30
2018-05-02T12:28:16.450Z,25.60
2018-05-02T12:30:44.357Z,25.30
2018-05-02T12:33:12.307Z,25.60
2018-05-02T12:35:40.184Z,25.60
2018-05-02T12:38:08.703Z,25.20
2018-05-02T12:40:36.639Z,24.40
2018-05-02T12:43:04.663Z,23.40
2018-05-02T12:45:32.713Z,23.30
2018-05-02T12:48:00.837Z,23.10
2018-05-02T12:50:28.778Z,22.60
2018-05-02T12:52:56.696Z,22.10
2018-05-02T12:55:29.231Z,21.80
2018-05-02T12:57:57.181Z,21.90
2018-05-02T13:00:25.098Z,22.20
2018-05-02T13:02:53.458Z,22.40
2018-05-02T13:05:21.389Z,22.70
2018-05-02T13:07:49.306Z,23.30
2018-05-02T13:10:17.263Z,23.90
2018-05-02T13:12:45.914Z,24.10
2018-05-02T13:15:13.835Z,24.00
2018-05-02T13:17:41.934Z,24.10
2018-05-02T13:20:24.938Z,23.90
2018-05-02T13:22:54.504Z,23.90
2018-05-02T13:25:22.545Z,24.00
2018-05-02T13:27:50.519Z,24.60
2018-05-02T13:30:19.341Z,25.20
2018-05-02T13:32:47.242Z,25.60
2018-05-02T13:35:15.280Z,25.70
2018-05-02T13:37:43.191Z,25.50
2018-05-02T13:40:11.140Z,25.70
2018-05-02T13:42:39.066Z,25.70
2018-05-02T13:45:06.961Z,26.00
2018-05-02T13:47:34.913Z,25.80
2018-05-02T13:50:02.839Z,25.30
2018-05-02T13:52:30.750Z,25.10
2018-05-02T13:54:58.703Z,25.60
2018-05-02T13:57:26.944Z,25.70
2018-05-02T13:59:54.888Z,25.10
2018-05-02T14:02:22.944Z,24.90
2018-05-02T14:04:51.734Z,25.10
2018-05-02T14:07:19.701Z,25.70
2018-05-02T14:09:47.606Z,26.00
2018-05-02T14:12:15.506Z,26.20
2018-05-02T14:14:43.453Z,25.40
2018-05-02T14:17:11.385Z,25.50
2018-05-02T14:19:39.531Z,25.70
2018-05-02T14:22:07.481Z,25.90
2018-05-02T14:27:05.053Z,25.90
2018-05-02T14:29:33.055Z,25.90
2018-05-02T14:32:00.979Z,25.60
2018-05-02T14:34:28.912Z,25.40
2018-05-02T14:36:56.931Z,24.70
2018-05-02T14:39:24.863Z,24.30
2018-05-02T14:41:52.782Z,24.40
2018-05-02T14:44:20.814Z,24.50
2018-05-02T14:46:48.738Z,24.70
2018-05-02T14:49:18.400Z,25.40
2018-05-02T14:51:48.025Z,25.40
2018-05-02T14:54:16.209Z,25.00
2018-05-02T14:56:44.132Z,24.80
2018-05-02T14:59:12.078Z,24.40
2018-05-02T15:01:40.013Z,24.10
2018-05-02T15:04:07.934Z,24.20
2018-05-02T15:06:35.988Z,24.20
2018-05-02T15:09:03.967Z,23.80
2018-05-02T15:11:31.997Z,24.00
2018-05-02T15:14:00.767Z,23.80
2018-05-02T15:16:29.399Z,23.80
2018-05-02T15:18:57.322Z,24.10
2018-05-02T15:21:25.264Z,24.10
2018-05-02T15:23:53.372Z,24.00
2018-05-02T15:26:21.292Z,23.60
2018-05-02T15:28:50.324Z,23.40
2018-05-02T15:31:18.912Z,23.30
2018-05-02T15:33:46.833Z,23.40
2018-05-02T15:36:16.252Z,23.60
2018-05-02T15:39:03.963Z,23.50
2018-05-02T15:54:28.075Z,22.40
2018-05-02T15:56:56.005Z,22.20
2018-05-02T15:59:23.921Z,22.10
2018-05-02T16:01:53.218Z,21.90
2018-05-02T16:04:21.669Z,21.50
2018-05-02T16:06:49.593Z,21.50
2018-05-02T16:09:18.892Z,21.50
2018-05-02T16:11:47.026Z,21.00
2018-05-02T16:14:14.978Z,20.80
2018-05-02T16:16:42.950Z,20.70
2018-05-02T16:19:11.602Z,20.80
2018-05-02T16:21:39.538Z,20.80
2018-05-02T16:24:07.489Z,20.80
2018-05-02T16:26:35.418Z,20.90
2018-05-02T16:29:03.389Z,21.20
2018-05-02T16:31:31.312Z,21.00
2018-05-02T16:33:59.722Z,20.90
2018-05-02T16:36:27.722Z,20.80
2018-05-02T16:38:55.797Z,20.60
2018-05-02T16:41:23.736Z,20.40
2018-05-02T16:43:51.648Z,20.40
2018-05-02T16:46:19.589Z,20.30
2018-05-02T16:48:47.530Z,20.30
2018-05-02T16:51:15.480Z,20.30
2018-05-02T16:53:44.935Z,20.30
2018-05-02T16:56:13.033Z,20.30
2018-05-02T16:58:40.947Z,20.20
2018-05-02T17:01:09.011Z,20.10
2018-05-02T17:03:36.912Z,20.00
2018-05-02T17:06:04.861Z,19.80
2018-05-02T17:08:32.765Z,19.50
2018-05-02T17:11:00.673Z,19.40
2018-05-02T17:13:28.650Z,19.30
2018-05-02T17:15:56.572Z,19.10
2018-05-02T17:18:24.511Z,19.00
2018-05-02T17:20:52.451Z,18.90
2018-05-02T17:23:20.579Z,18.80
2018-05-02T17:25:49.265Z,18.70
2018-05-02T17:28:17.203Z,18.70
2018-05-02T17:30:45.123Z,18.70
2018-05-02T17:33:13.073Z,18.60
2018-05-02T17:35:41.017Z,18.60
2018-05-02T17:38:08.954Z,18.50
2018-05-02T17:40:36.867Z,18.50
2018-05-02T17:43:04.822Z,18.50
2018-05-02T17:45:33.517Z,18.50
2018-05-02T17:48:01.439Z,18.30
2018-05-02T17:50:29.401Z,18.20
2018-05-02T17:52:57.323Z,18.20
2018-05-02T17:55:25.264Z,18.20
2018-05-02T17:57:53.221Z,18.10
2018-05-02T18:00:21.155Z,18.10
2018-05-02T18:02:49.102Z,18.00
2018-05-02T18:07:51.383Z,17.80
2018-05-02T18:10:19.421Z,17.80
2018-05-02T18:12:47.307Z,17.70
2018-05-02T18:15:15.279Z,17.70
2018-05-02T18:20:12.165Z,17.50
2018-05-02T18:22:40.152Z,17.40
2018-05-02T18:25:08.113Z,17.40
2018-05-02T18:27:37.162Z,17.40
2018-05-02T18:30:05.109Z,17.30
2018-05-02T18:32:33.088Z,17.30
2018-05-02T18:35:01.024Z,17.20
2018-05-02T18:37:28.976Z,17.20
2018-05-02T18:39:56.920Z,17.10
2018-05-02T18:42:24.893Z,17.10
2018-05-02T18:44:52.837Z,17.10
2018-05-02T18:47:20.816Z,17.00
2018-05-02T18:49:48.788Z,17.00
2018-05-02T18:52:28.371Z,16.90
2018-05-02T18:55:03.729Z,16.90
2018-05-02T18:57:31.835Z,16.80
2018-05-02T18:59:59.843Z,16.80
2018-05-02T19:02:27.805Z,16.70
2018-05-02T19:04:55.788Z,16.70
2018-05-02T19:07:23.772Z,16.70
2018-05-02T19:09:51.748Z,16.60
2018-05-02T19:12:19.828Z,16.60
2018-05-02T19:14:47.760Z,16.50
2018-05-02T19:17:15.761Z,16.50
2018-05-02T19:19:49.376Z,16.50
2018-05-02T19:22:17.358Z,16.50
2018-05-02T19:24:50.977Z,16.40
2018-05-02T19:27:18.943Z,16.40
2018-05-02T19:29:47.100Z,16.30
2018-05-02T19:32:20.787Z,16.20
2018-05-02T19:34:48.774Z,16.20
2018-05-02T19:37:16.763Z,16.20
2018-05-02T19:39:50.523Z,16.20
2018-05-02T19:45:25.702Z,16.10
2018-05-02T19:47:53.695Z,16.00
2018-05-02T19:50:21.699Z,16.00
2018-05-02T19:52:49.707Z,15.90
2018-05-02T19:55:17.702Z,15.90
2018-05-02T19:57:45.688Z,15.80
2018-05-02T20:00:19.324Z,15.80
2018-05-02T20:02:52.870Z,15.80
2018-05-02T20:05:20.891Z,15.70
2018-05-02T20:07:48.871Z,15.60
2018-05-02T20:10:22.572Z,15.60
2018-05-02T20:12:56.163Z,15.50
2018-05-02T20:15:24.126Z,15.40
2018-05-02T20:17:52.103Z,15.40
2018-05-02T20:22:49.377Z,15.20
2018-05-02T20:25:17.472Z,15.20
2018-05-02T20:27:45.368Z,15.10
2018-05-02T20:30:13.389Z,15.00
2018-05-02T20:32:41.324Z,15.40
2018-05-02T20:35:09.270Z,15.10
2018-05-02T20:37:37.253Z,14.90
2018-05-02T20:40:05.212Z,15.40
2018-05-02T20:42:34.067Z,15.00
2018-05-02T20:45:02.045Z,14.90
2018-05-02T20:47:29.955Z,15.40
2018-05-02T20:49:58.215Z,15.00
2018-05-02T20:52:26.778Z,14.90
2018-05-02T20:54:54.763Z,15.30
2018-05-02T20:57:23.118Z,14.90
2018-05-02T20:59:51.084Z,15.30
2018-05-02T21:02:21.337Z,14.80
2018-05-02T21:04:49.321Z,15.20
2018-05-02T21:07:17.335Z,14.80
2018-05-02T21:09:45.258Z,15.20
2018-05-02T21:12:13.187Z,14.80
2018-05-02T21:14:42.019Z,15.10
2018-05-02T21:17:11.573Z,14.70
2018-05-02T21:19:39.528Z,15.00
2018-05-02T21:22:07.488Z,14.60
2018-05-02T21:24:35.433Z,14.90
2018-05-02T21:27:03.362Z,14.50
2018-05-02T21:29:31.334Z,14.90
2018-05-02T21:31:59.264Z,14.50
2018-05-02T21:34:27.191Z,14.90
2018-05-02T21:36:55.149Z,14.50
2018-05-02T21:39:23.102Z,14.90
2018-05-02T21:41:51.020Z,14.50
2018-05-02T21:44:19.194Z,14.90
2018-05-02T21:46:47.642Z,14.40
2018-05-02T21:49:15.552Z,14.80
2018-05-02T21:51:45.132Z,14.40
2018-05-02T21:54:13.072Z,14.80
2018-05-02T21:56:41.041Z,14.30
2018-05-02T21:59:09.656Z,14.70
2018-05-02T22:01:38.859Z,14.30
2018-05-02T22:04:06.785Z,14.70
2018-05-02T22:06:37.300Z,14.80
2018-05-02T22:09:05.215Z,14.30
2018-05-02T22:11:33.425Z,14.70
2018-05-02T22:53:43.610Z,14.50
2018-05-02T22:56:11.522Z,14.60
2018-05-02T22:58:39.472Z,14.70
2018-05-02T23:01:07.392Z,14.30
2018-05-02T23:03:35.296Z,14.80
2018-05-02T23:06:03.235Z,14.90
2018-05-02T23:08:31.158Z,14.40
2018-05-02T23:13:28.037Z,14.80
2018-05-02T23:15:56.076Z,14.30
2018-05-02T23:18:24.051Z,14.70
2018-05-02T23:20:51.931Z,14.70
2018-05-02T23:23:19.842Z,14.30
2018-05-02T23:25:47.766Z,14.70
2018-05-02T23:28:15.714Z,14.80
2018-05-02T23:30:43.631Z,14.30
2018-05-02T23:33:11.562Z,14.70
2018-05-02T23:35:39.497Z,14.80
2018-05-02T23:38:07.415Z,14.90
2018-05-02T23:40:35.339Z,14.40
2018-05-02T23:43:03.282Z,14.70
2018-05-02T23:45:31.201Z,14.80
2018-05-02T23:47:59.111Z,14.80
2018-05-02T23:52:55.991Z,14.60
2018-05-02T23:55:23.969Z,14.70
2018-05-02T23:57:51.930Z,14.70
